createdAt,value
2023-03-02T08:17:48.490Z,2288.00
2023-03-02T08:18:48.524Z,2285.00
2023-03-02T08:19:48.375Z,2282.00
2023-03-02T08:20:49.242Z,2277.00
2023-03-02T08:21:49.083Z,2276.00
2023-03-02T08:22:48.335Z,2177.00
2023-03-02T08:23:48.151Z,1330.00
2023-03-02T08:24:48.619Z,1242.00
2023-03-02T08:25:47.885Z,1195.00
2023-03-02T08:26:47.810Z,1351.00
2023-03-02T08:27:47.724Z,1411.00
2023-03-02T10:03:38.864Z,1979.00
2023-03-02T10:05:38.567Z,1973.00
2023-03-02T10:06:38.373Z,1973.00
2023-03-02T10:07:38.267Z,1974.00
2023-03-02T10:08:38.139Z,1972.00
2023-03-02T10:09:38.015Z,1975.00
2023-03-02T10:10:37.897Z,1973.00
2023-03-02T10:11:37.790Z,1964.00
2023-03-02T11:55:29.409Z,1641.00
2023-03-02T11:56:29.319Z,1656.00
2023-03-02T11:57:29.238Z,1657.00
2023-03-02T11:58:29.154Z,1663.00
2023-03-02T11:59:29.064Z,1678.00
2023-03-02T12:00:28.965Z,1692.00
2023-03-02T12:01:28.878Z,1756.00
2023-03-02T12:02:28.798Z,1741.00
2023-03-02T12:03:28.710Z,1738.00
2023-03-02T12:04:28.626Z,1744.00
2023-03-02T12:05:28.548Z,1745.00
2023-03-02T12:06:28.420Z,1742.00
2023-03-02T12:07:28.324Z,1730.00
2023-03-02T12:08:28.240Z,1722.00
2023-03-02T12:09:28.185Z,1713.00
2023-03-02T12:10:28.061Z,1711.00
2023-03-02T12:11:27.986Z,1717.00
2023-03-02T12:12:27.895Z,1718.00
2023-03-02T12:13:27.813Z,1717.00
2023-03-02T12:14:27.744Z,1711.00
2023-03-02T13:26:23.581Z,1990.00
2023-03-02T14:01:20.299Z,2549.00
2023-03-02T14:02:20.125Z,2559.00
2023-03-02T14:03:20.006Z,2577.00
2023-03-02T14:04:20.028Z,2610.00
2023-03-02T14:05:19.953Z,2631.00
2023-03-02T14:06:19.725Z,2676.00
2023-03-02T14:07:19.631Z,2667.00
2023-03-02T14:08:19.519Z,2660.00
2023-03-02T14:09:19.433Z,2647.00
2023-03-02T14:10:19.314Z,2559.00
2023-03-02T14:11:19.211Z,2549.00
2023-03-02T14:12:19.116Z,2541.00
2023-03-02T14:13:19.025Z,2552.00
2023-03-02T14:14:18.946Z,2542.00
2023-03-02T14:15:18.902Z,2557.00
2023-03-02T14:16:18.730Z,2577.00
2023-03-02T14:17:18.633Z,2584.00
2023-03-02T14:18:18.523Z,2592.00
2023-03-02T14:19:18.524Z,2606.00
2023-03-02T14:20:18.310Z,2622.00
2023-03-02T14:21:18.228Z,2639.00
2023-03-02T14:22:18.134Z,2648.00
2023-03-02T14:23:18.051Z,2665.00
2023-03-02T14:24:17.937Z,2671.00
2023-03-02T14:25:17.834Z,2695.00
2023-03-02T14:26:17.734Z,2708.00
2023-03-02T15:25:12.777Z,2759.00
2023-03-02T15:26:12.718Z,2760.00
2023-03-02T15:27:12.673Z,2759.00
2023-03-02T15:28:12.614Z,2750.00
2023-03-02T15:29:12.546Z,2751.00
2023-03-02T15:30:12.519Z,2755.00
2023-03-02T15:31:12.447Z,2759.00
2023-03-02T15:32:12.474Z,2755.00
2023-03-02T15:33:12.315Z,2756.00
2023-03-02T15:34:12.266Z,2753.00
2023-03-02T15:35:12.472Z,2751.00
2023-03-02T15:36:12.191Z,2746.00
2023-03-02T15:37:12.111Z,2747.00
2023-03-02T15:38:12.075Z,2737.00
2023-03-02T15:39:12.028Z,2736.00
2023-03-02T15:40:11.973Z,2742.00
2023-03-02T15:41:11.926Z,2743.00
2023-03-02T15:42:13.816Z,2739.00
2023-03-02T15:43:11.850Z,2740.00
2023-03-02T15:44:11.797Z,2737.00
2023-03-02T15:45:11.738Z,2734.00
2023-03-02T15:46:11.697Z,2739.00
2023-03-02T15:47:11.655Z,2732.00
2023-03-02T15:48:13.582Z,2731.00
2023-03-02T15:49:11.576Z,2724.00
2023-03-02T15:50:11.527Z,2722.00
2023-03-02T15:51:11.481Z,2723.00
2023-03-02T15:52:11.440Z,2724.00
2023-03-02T15:53:11.398Z,2726.00
2023-03-02T15:54:11.353Z,2724.00
2023-03-02T15:55:11.320Z,2717.00
2023-03-02T15:56:11.270Z,2720.00
2023-03-02T15:57:11.224Z,2718.00
2023-03-02T15:58:11.173Z,2719.00
2023-03-02T15:59:11.122Z,2719.00
2023-03-02T16:00:11.105Z,2714.00
2023-03-02T16:01:11.134Z,2714.00
2023-03-02T16:02:10.999Z,2715.00
2023-03-02T16:03:10.981Z,2713.00
2023-03-02T16:04:10.894Z,2709.00
2023-03-02T16:05:10.863Z,2711.00
2023-03-02T16:06:10.822Z,2705.00
2023-03-02T16:07:10.816Z,2706.00
2023-03-02T16:08:10.772Z,2700.00
2023-03-02T16:09:10.709Z,2699.00
2023-03-02T16:10:10.666Z,2696.00
2023-03-02T16:11:10.640Z,2688.00
2023-03-02T16:12:10.538Z,2686.00
2023-03-02T16:13:10.490Z,2687.00
2023-03-02T16:14:10.443Z,2685.00
2023-03-02T16:15:10.405Z,2684.00
2023-03-02T16:16:10.373Z,2680.00
2023-03-02T16:17:10.249Z,2680.00
2023-03-02T16:18:10.193Z,2675.00
2023-03-02T16:19:10.129Z,2676.00
2023-03-02T16:20:10.063Z,2676.00
2023-03-02T16:21:09.987Z,2680.00
2023-03-02T16:22:09.898Z,2676.00
2023-03-02T16:23:09.876Z,2669.00
2023-03-02T16:24:09.824Z,2662.00
2023-03-02T16:25:09.774Z,2663.00
2023-03-02T16:26:09.704Z,2661.00
2023-03-02T16:27:09.633Z,2658.00
2023-03-02T16:28:09.561Z,2658.00
2023-03-02T16:29:09.497Z,2659.00
2023-03-02T16:30:09.455Z,2661.00
2023-03-02T16:31:09.397Z,2666.00
2023-03-02T16:32:09.372Z,2658.00
2023-03-02T16:33:09.195Z,2658.00
2023-03-02T16:34:09.118Z,2660.00
2023-03-02T16:35:08.993Z,2665.00
2023-03-02T16:36:08.889Z,2661.00
2023-03-02T16:37:08.789Z,2659.00
2023-03-02T16:38:08.706Z,2652.00
2023-03-02T16:39:08.615Z,2644.00
2023-03-02T16:40:08.603Z,2638.00
2023-03-02T16:41:08.401Z,2634.00
2023-03-02T16:42:08.309Z,2637.00
2023-03-02T16:43:08.208Z,2634.00
2023-03-02T16:44:08.106Z,2630.00
2023-03-02T16:45:08.086Z,2634.00
2023-03-02T16:46:07.971Z,2634.00
2023-03-02T16:47:07.813Z,2633.00
2023-03-02T17:48:02.434Z,2566.00
2023-03-02T17:49:02.349Z,2561.00
2023-03-02T17:50:02.260Z,2565.00
2023-03-02T17:51:02.186Z,2560.00
2023-03-02T17:52:02.099Z,2558.00
2023-03-02T17:53:02.028Z,2554.00
2023-03-02T17:54:01.952Z,2543.00
2023-03-02T17:55:01.893Z,2538.00
2023-03-02T17:56:01.823Z,2538.00
2023-03-02T17:57:01.743Z,2539.00
2023-03-02T17:58:01.672Z,2541.00
2023-03-02T17:59:01.594Z,2539.00
2023-03-02T18:00:01.539Z,2546.00
2023-03-02T18:01:01.479Z,2548.00
2023-03-02T18:02:01.405Z,2557.00
2023-03-02T18:03:01.433Z,2560.00
2023-03-02T18:04:01.343Z,2560.00
2023-03-02T18:05:01.201Z,2561.00
2023-03-02T18:06:01.153Z,2561.00
2023-03-02T18:07:01.105Z,2556.00
2023-03-02T18:08:01.017Z,2547.00
2023-03-02T18:09:00.938Z,2546.00
2023-03-02T18:10:00.880Z,2543.00
2023-03-02T18:11:00.818Z,2540.00
2023-03-02T18:12:00.740Z,2544.00
2023-03-02T18:13:00.697Z,2547.00
2023-03-02T18:14:00.629Z,2553.00
2023-03-02T18:15:00.564Z,2550.00
2023-03-02T18:16:00.529Z,2544.00
2023-03-02T18:17:00.434Z,2541.00
2023-03-02T18:18:00.384Z,2539.00
2023-03-02T18:19:00.311Z,2538.00
2023-03-02T18:20:00.275Z,2538.00
2023-03-02T18:21:00.213Z,2541.00
2023-03-02T18:22:00.151Z,2538.00
2023-03-02T18:23:00.113Z,2533.00
2023-03-02T18:24:00.009Z,2529.00
2023-03-02T18:24:59.953Z,2528.00
2023-03-02T18:25:59.901Z,2534.00
2023-03-02T18:26:59.842Z,2532.00
2023-03-02T18:27:59.853Z,2532.00
2023-03-02T18:28:59.725Z,2529.00
2023-03-02T18:29:59.672Z,2527.00
2023-03-02T18:30:59.631Z,2527.00
2023-03-02T18:31:59.552Z,2526.00
2023-03-02T18:32:59.499Z,2531.00
2023-03-02T18:33:59.438Z,2531.00
2023-03-02T18:34:59.384Z,2532.00
2023-03-02T18:35:59.337Z,2532.00
2023-03-02T18:36:59.270Z,2531.00
2023-03-02T18:37:59.255Z,2529.00
2023-03-02T18:38:59.181Z,2524.00
2023-03-02T18:39:59.128Z,2515.00
2023-03-02T18:40:59.094Z,2517.00
2023-03-02T18:41:59.018Z,2517.00
2023-03-02T18:42:58.972Z,2514.00
2023-03-02T18:43:58.923Z,2515.00
2023-03-02T18:44:58.874Z,2511.00
2023-03-02T18:45:58.801Z,2509.00
2023-03-02T18:46:58.808Z,2508.00
2023-03-02T18:47:58.693Z,2512.00
2023-03-02T18:48:58.644Z,2510.00
2023-03-02T18:49:58.597Z,2508.00
2023-03-02T18:50:58.544Z,2508.00
2023-03-02T18:51:58.497Z,2508.00
2023-03-02T18:52:58.465Z,2507.00
2023-03-02T18:53:58.402Z,2510.00
2023-03-02T18:54:58.353Z,2503.00
2023-03-02T18:55:58.313Z,2492.00
2023-03-02T18:56:58.250Z,2486.00
2023-03-02T18:57:58.225Z,2487.00
2023-03-02T18:58:58.162Z,2484.00
2023-03-02T18:59:58.117Z,2486.00
2023-03-02T19:00:58.125Z,2485.00
2023-03-02T19:01:58.058Z,2483.00
2023-03-02T19:02:57.983Z,2485.00
2023-03-02T19:03:57.927Z,2482.00
2023-03-02T19:04:57.883Z,2480.00
2023-03-02T19:05:58.307Z,2478.00
2023-03-02T19:06:57.785Z,2479.00
2023-03-02T19:07:57.742Z,2475.00
2023-03-02T20:26:54.948Z,2370.00
2023-03-02T20:27:54.371Z,2369.00
2023-03-02T20:28:54.341Z,2370.00
2023-03-02T20:29:54.299Z,2371.00
2023-03-02T20:30:54.305Z,2369.00
2023-03-02T20:31:54.262Z,2371.00
2023-03-02T20:32:54.214Z,2371.00
2023-03-02T20:33:54.177Z,2373.00
2023-03-02T20:34:54.115Z,2370.00
2023-03-02T20:35:54.112Z,2371.00
2023-03-02T20:36:54.016Z,2369.00
2023-03-02T20:37:53.990Z,2367.00
2023-03-02T20:38:54.013Z,2364.00
2023-03-02T20:39:53.909Z,2361.00
2023-03-02T20:40:53.867Z,2359.00
2023-03-02T20:41:53.819Z,2360.00
2023-03-02T20:42:53.776Z,2357.00
2023-03-02T20:43:53.767Z,2355.00
2023-03-02T20:44:53.774Z,2352.00
2023-03-02T20:45:53.739Z,2345.00
2023-03-02T20:46:53.638Z,2341.00
2023-03-02T20:47:53.597Z,2345.00
2023-03-02T20:48:53.570Z,2341.00
2023-03-02T20:49:53.523Z,2336.00
2023-03-02T20:50:53.484Z,2334.00
2023-03-02T20:51:53.465Z,2327.00
2023-03-02T20:52:53.412Z,2330.00
2023-03-02T20:53:53.376Z,2338.00
2023-03-02T20:54:53.342Z,2335.00
2023-03-02T20:55:53.293Z,2337.00
2023-03-02T20:56:53.268Z,2332.00
2023-03-02T20:57:53.235Z,2331.00
2023-03-02T20:58:53.215Z,2329.00
2023-03-02T20:59:53.163Z,2326.00
2023-03-02T21:00:53.105Z,2321.00
2023-03-02T21:01:53.075Z,2325.00
2023-03-02T21:02:53.040Z,2326.00
2023-03-02T21:03:53.008Z,2326.00
2023-03-02T21:04:53.032Z,2315.00
2023-03-02T21:05:52.910Z,2306.00
2023-03-02T21:06:52.896Z,2311.00
2023-03-02T21:07:52.865Z,2316.00
2023-03-02T21:08:52.831Z,2321.00
2023-03-02T21:09:52.788Z,2320.00
2023-03-02T21:10:52.798Z,2322.00
2023-03-02T21:11:52.729Z,2325.00
2023-03-02T21:12:52.698Z,2321.00
2023-03-02T21:13:52.673Z,2318.00
2023-03-02T21:14:52.628Z,2315.00
2023-03-02T21:15:52.614Z,2317.00
2023-03-02T21:16:52.556Z,2317.00
2023-03-02T21:17:52.514Z,2313.00
2023-03-02T21:18:52.486Z,2308.00
2023-03-02T21:19:52.449Z,2304.00
2023-03-02T21:20:52.414Z,2303.00
2023-03-02T21:21:52.394Z,2305.00
2023-03-02T21:22:52.987Z,2304.00
2023-03-02T21:23:52.309Z,2301.00
2023-03-02T21:24:52.272Z,2302.00
2023-03-02T21:25:52.240Z,2298.00
2023-03-02T21:26:52.206Z,2292.00
2023-03-02T21:27:52.183Z,2287.00
2023-03-02T21:28:52.154Z,2287.00
2023-03-02T21:29:52.121Z,2289.00
2023-03-02T21:30:52.109Z,2288.00
2023-03-02T21:31:52.085Z,2287.00
2023-03-02T21:32:52.028Z,2286.00
2023-03-02T21:33:52.006Z,2283.00
2023-03-02T21:34:51.967Z,2279.00
2023-03-02T21:35:51.928Z,2277.00
2023-03-02T21:36:51.896Z,2272.00
2023-03-02T21:37:51.872Z,2273.00
2023-03-02T21:38:51.832Z,2275.00
2023-03-02T21:39:51.813Z,2273.00
2023-03-02T21:40:51.758Z,2270.00
2023-03-02T21:41:51.737Z,2268.00
2023-03-02T21:42:51.680Z,2270.00
2023-03-02T21:43:51.652Z,2265.00
2023-03-02T21:44:51.608Z,2266.00
2023-03-02T21:45:51.577Z,2265.00
2023-03-02T21:46:51.544Z,2271.00
2023-03-02T21:47:51.500Z,2269.00
2023-03-02T21:48:51.484Z,2267.00
2023-03-02T21:49:51.422Z,2259.00
2023-03-02T21:50:51.404Z,2259.00
2023-03-02T21:51:51.377Z,2257.00
2023-03-02T21:52:51.343Z,2255.00
2023-03-02T21:53:51.313Z,2255.00
2023-03-02T21:54:51.283Z,2257.00
2023-03-02T21:55:51.238Z,2257.00
2023-03-02T21:56:51.201Z,2257.00
2023-03-02T21:57:51.161Z,2258.00
2023-03-02T21:58:51.143Z,2255.00
2023-03-02T21:59:51.088Z,2246.00
2023-03-02T22:00:51.904Z,2242.00
2023-03-02T22:01:51.020Z,2249.00
2023-03-02T22:02:50.982Z,2248.00
2023-03-02T22:03:50.920Z,2245.00
2023-03-02T22:04:50.875Z,2241.00
2023-03-02T22:05:50.853Z,2240.00
2023-03-02T22:06:50.818Z,2236.00
2023-03-02T22:07:50.793Z,2237.00
2023-03-02T22:08:50.774Z,2234.00
2023-03-02T22:09:50.757Z,2237.00
2023-03-02T22:10:50.692Z,2236.00
2023-03-02T22:11:50.662Z,2233.00
2023-03-02T22:12:50.619Z,2232.00
2023-03-02T22:13:50.677Z,2229.00
2023-03-02T22:14:50.556Z,2230.00
2023-03-02T22:15:50.542Z,2227.00
2023-03-02T22:16:50.502Z,2227.00
2023-03-02T22:17:50.476Z,2226.00
2023-03-02T22:18:50.450Z,2224.00
2023-03-02T22:19:50.467Z,2225.00
2023-03-02T22:20:50.426Z,2221.00
2023-03-02T22:21:50.368Z,2221.00
2023-03-02T22:22:50.335Z,2221.00
2023-03-02T22:23:50.313Z,2218.00
2023-03-02T22:24:50.280Z,2216.00
2023-03-02T22:25:50.245Z,2213.00
2023-03-02T22:26:50.222Z,2214.00
2023-03-02T22:27:50.206Z,2216.00
2023-03-02T22:28:50.167Z,2211.00
2023-03-02T22:29:50.119Z,2211.00
2023-03-02T22:30:50.081Z,2208.00
2023-03-02T22:31:50.053Z,2210.00
2023-03-02T22:32:50.010Z,2207.00
2023-03-02T22:33:49.997Z,2204.00
2023-03-02T22:34:49.958Z,2203.00
2023-03-02T22:35:49.963Z,2199.00
2023-03-02T22:36:49.881Z,2204.00
2023-03-02T22:37:49.840Z,2198.00
2023-03-02T22:38:49.817Z,2200.00
2023-03-02T22:39:49.800Z,2197.00
2023-03-02T22:40:49.752Z,2191.00
2023-03-02T22:41:49.722Z,2192.00
2023-03-02T22:42:49.761Z,2196.00
2023-03-02T22:43:49.666Z,2198.00
2023-03-02T22:44:49.644Z,2200.00
2023-03-02T22:45:49.615Z,2198.00
2023-03-02T22:46:49.588Z,2201.00
2023-03-02T22:47:49.551Z,2202.00
2023-03-02T22:48:49.545Z,2200.00
2023-03-02T22:49:49.517Z,2198.00
2023-03-02T22:50:49.512Z,2189.00
2023-03-02T22:51:49.469Z,2188.00
2023-03-02T22:52:49.447Z,2186.00
2023-03-02T22:53:49.444Z,2188.00
2023-03-02T22:54:49.400Z,2191.00
2023-03-02T22:55:49.458Z,2189.00
2023-03-02T22:56:49.360Z,2190.00
2023-03-02T22:57:49.366Z,2186.00
2023-03-02T22:58:49.314Z,2187.00
2023-03-02T22:59:49.287Z,2185.00
2023-03-02T23:00:49.304Z,2184.00
2023-03-02T23:01:49.228Z,2180.00
2023-03-02T23:02:49.197Z,2178.00
2023-03-02T23:03:49.172Z,2174.00
2023-03-02T23:04:49.219Z,2169.00
2023-03-02T23:05:49.143Z,2170.00
2023-03-02T23:06:49.093Z,2168.00
2023-03-02T23:07:49.067Z,2166.00
2023-03-02T23:08:49.040Z,2166.00
2023-03-02T23:09:49.003Z,2161.00
2023-03-02T23:10:48.973Z,2157.00
2023-03-02T23:11:48.937Z,2152.00
2023-03-02T23:12:48.919Z,2152.00
2023-03-02T23:13:48.889Z,2152.00
2023-03-02T23:14:48.872Z,2153.00
2023-03-02T23:15:48.853Z,2149.00
2023-03-02T23:16:48.846Z,2157.00
2023-03-02T23:29:48.460Z,2145.00
2023-03-02T23:30:48.430Z,2138.00
2023-03-02T23:31:48.413Z,2131.00
2023-03-02T23:32:48.406Z,2127.00
2023-03-02T23:33:48.347Z,2128.00
2023-03-02T23:34:48.283Z,2128.00
2023-03-02T23:35:48.330Z,2129.00
2023-03-02T23:36:48.222Z,2130.00
2023-03-02T23:37:48.200Z,2130.00
2023-03-02T23:38:48.152Z,2126.00
2023-03-02T23:39:48.124Z,2124.00
2023-03-02T23:40:48.078Z,2123.00
2023-03-02T23:41:48.063Z,2126.00
2023-03-02T23:42:47.999Z,2129.00
2023-03-02T23:44:47.967Z,2123.00
2023-03-02T23:45:47.949Z,2123.00
2023-03-02T23:46:47.881Z,2122.00
2023-03-02T23:47:47.816Z,2116.00
2023-03-02T23:48:47.773Z,2110.00
